ROMMA est une association bénévole à but non lucratif. Votre soutien est indispensable : ADHERER à ROMMA ou FAIRE un DON

Crest - (26, Drôme)

Vallée de la Drôme (315 m)   Longitude: 5°2' E   Latitude: 44°44' N Station partenaire n°62
 

Détail journalier du     <<     >>

Température Precipitation Humidité Pression Vent Dir Rafale Dir. rafale Ensol.
Heure (°C) (mm) (%) (hPa) (km/h) (km/h) (min)
01:00 20.506710171SSE5SSE0
02:00 19.9069101703SSE0
03:00 18.9072101706SE0
04:00 18.707410171SE6SE0
05:00 18.407510171---5ENE0
06:00 17.807910171NE5SE0
07:00 17.907910181SSE6SE0
08:00 17.708110181SSE5SSE0
09:00 19.807210182SSE8ESE36
10:00 22.706510182ESE10SSE60
11:00 23.906310186S23SSO60
12:00 25.8054101811NE26NNE60
13:00 27.3047101813NE31NE60
14:00 28.2047101716NE34NNO39
15:00 29.1044101717NE35NE60
16:00 28.9044101619NE39NNE59
17:00 29.1042101619NE37NE60
18:00 28.3044101619NE40SSO48
19:00 27.8046101615NE35NE47
20:00 26.7050101711NE26NE4
21:00 25.205410176SSO18NE3
22:00 23.605910184SSO11SSO0
23:00 23.406010185SSO13NE0
minuit 22.206510197SSO18S0

Graphique du 29-08-2019

 

Serveur OMMA